Time;durP1;ratioP1;P1;durP2;ratioP2;P2;SDS_P1;SDS_P2;PMS_P1;PMS_P2;Temp;Humidity;BMP_temperature;BMP_pressure;BME280_temperature;BME280_humidity;BME280_pressure;Samples;Min_cycle;Max_cycle;Signal;HPM_P1;HPM_P2
2021/04/13 00:00:34;;;;;;;3.63;2.20;;;7.40;99.90;;;;;;5004491;28;20256;-71
2021/04/13 00:03:08;;;;;;;3.80;2.30;;;7.50;99.90;;;;;;5000373;28;20238;-71
2021/04/13 00:05:49;;;;;;;2.93;1.83;;;7.40;99.90;;;;;;5017914;28;20276;-71
2021/04/13 00:08:20;;;;;;;3.27;2.00;;;7.30;99.90;;;;;;4983771;28;20185;-71
2021/04/13 00:11:04;;;;;;;3.00;1.80;;;7.20;99.90;;;;;;5015178;28;20646;-72
2021/04/13 00:13:32;;;;;;;2.30;2.00;;;7.20;99.90;;;;;;5016432;28;20192;-71
2021/04/13 00:16:14;;;;;;;2.10;1.90;;;7.30;99.90;;;;;;5004053;28;20832;-71
2021/04/13 00:18:44;;;;;;;2.83;2.07;;;7.40;99.90;;;;;;5003190;28;20222;-71
2021/04/13 00:21:49;;;;;;;2.60;2.00;;;7.40;99.90;;;;;;5018709;28;20192;-71
2021/04/13 00:24:23;;;;;;;5.27;2.10;;;7.40;99.90;;;;;;5019281;28;20220;-71
2021/04/13 00:27:00;;;;;;;4.83;2.13;;;7.30;99.90;;;;;;5002677;28;20255;-71
2021/04/13 00:29:30;;;;;;;2.50;1.90;;;7.30;99.90;;;;;;4985099;28;20669;-71
2021/04/13 00:32:01;;;;;;;2.80;1.87;;;7.30;99.90;;;;;;4997005;28;20653;-70
2021/04/13 00:37:20;;;;;;;2.30;2.10;;;7.40;99.90;;;;;;4996806;28;20208;-70
2021/04/13 00:39:48;;;;;;;2.57;2.00;;;7.40;99.90;;;;;;4996197;28;20641;-71
2021/04/13 00:42:24;;;;;;;2.70;2.27;;;7.40;99.90;;;;;;5015514;28;20185;-72
2021/04/13 00:45:01;;;;;;;3.53;2.23;;;7.40;99.90;;;;;;5001632;28;20278;-71
2021/04/13 00:47:34;;;;;;;3.17;1.80;;;7.50;99.90;;;;;;4998736;28;20181;-71
2021/04/13 00:50:19;;;;;;;2.77;2.47;;;7.50;99.90;;;;;;5012135;28;20200;-71
2021/04/13 00:52:59;;;;;;;2.00;1.80;;;7.50;99.90;;;;;;5000330;28;20203;-71
2021/04/13 00:55:36;;;;;;;2.63;2.10;;;7.30;99.90;;;;;;4987262;28;20212;-71
2021/04/13 00:58:32;;;;;;;2.50;2.17;;;7.30;99.90;;;;;;5003914;28;20196;-71
2021/04/13 01:01:23;;;;;;;3.03;2.20;;;7.20;99.90;;;;;;4984896;28;20189;-71
2021/04/13 01:04:01;;;;;;;2.93;2.00;;;7.20;99.90;;;;;;4989091;28;20224;-70
2021/04/13 01:06:30;;;;;;;3.13;2.50;;;7.30;99.90;;;;;;5002594;28;20191;-71
2021/04/13 01:09:24;;;;;;;2.50;2.00;;;7.30;99.90;;;;;;5003121;28;20199;-71
2021/04/13 01:12:08;;;;;;;4.13;2.10;;;7.40;99.90;;;;;;4984404;28;20196;-71
2021/04/13 01:14:35;;;;;;;3.03;2.00;;;7.40;99.90;;;;;;4983356;28;20241;-71
2021/04/13 01:17:08;;;;;;;2.13;1.90;;;7.30;99.90;;;;;;4981546;28;20211;-71
2021/04/13 01:20:10;;;;;;;3.93;1.80;;;7.30;99.90;;;;;;4982825;28;20216;-71
2021/04/13 01:25:45;;;;;;;2.10;1.90;;;7.20;99.90;;;;;;5004618;28;20868;-71
2021/04/13 01:28:25;;;;;;;2.50;2.20;;;7.10;99.90;;;;;;5000996;28;20189;-71
2021/04/13 01:31:04;;;;;;;3.40;1.77;;;7.10;99.90;;;;;;4983822;28;20900;-71
2021/04/13 01:33:53;;;;;;;2.60;2.00;;;7.00;99.90;;;;;;5000946;28;20252;-71
2021/04/13 01:36:33;;;;;;;2.67;2.03;;;7.10;99.90;;;;;;4979751;28;20190;-71
2021/04/13 01:39:20;;;;;;;2.00;1.80;;;7.10;99.90;;;;;;5006203;28;20211;-71
2021/04/13 01:44:43;;;;;;;2.80;1.70;;;7.10;99.90;;;;;;5002352;28;20243;-71
2021/04/13 01:47:15;;;;;;;2.70;2.00;;;7.10;99.90;;;;;;5012630;28;20192;-71
2021/04/13 01:50:07;;;;;;;3.03;1.93;;;7.20;99.90;;;;;;4984582;28;20272;-71
2021/04/13 01:52:40;;;;;;;2.60;2.20;;;7.20;99.90;;;;;;5014154;28;20244;-71
2021/04/13 01:55:26;;;;;;;2.03;1.83;;;7.30;99.90;;;;;;5000165;28;20188;-71
2021/04/13 01:59:02;;;;;;;3.83;1.87;;;7.10;99.90;;;;;;4995983;28;20705;-71
2021/04/13 02:01:42;;;;;;;2.13;1.80;;;7.00;99.90;;;;;;5012128;28;20249;-71
2021/04/13 02:04:20;;;;;;;2.43;2.10;;;6.80;99.90;;;;;;5015870;28;20189;-71
2021/04/13 02:09:53;;;;;;;2.30;1.80;;;6.70;99.90;;;;;;5002838;28;20215;-72
2021/04/13 02:12:29;;;;;;;2.60;2.13;;;6.70;99.90;;;;;;5015380;28;20913;-72
2021/04/13 02:15:21;;;;;;;3.07;1.80;;;6.70;99.90;;;;;;5000545;28;20190;-72
2021/04/13 02:17:57;;;;;;;2.37;2.07;;;6.80;99.90;;;;;;4996968;28;20287;-72
2021/04/13 02:20:33;;;;;;;2.63;2.07;;;6.80;99.90;;;;;;5016947;28;20278;-72
2021/04/13 02:23:05;;;;;;;2.53;2.33;;;6.70;99.90;;;;;;4980163;28;20208;-72
2021/04/13 02:25:38;;;;;;;2.87;2.00;;;6.60;99.90;;;;;;5000636;28;20185;-71
2021/04/13 02:28:07;;;;;;;2.20;2.00;;;6.50;99.90;;;;;;5015536;28;20271;-72
2021/04/13 02:30:44;;;;;;;2.17;1.97;;;6.60;99.90;;;;;;4998525;28;20495;-72
2021/04/13 02:33:39;;;;;;;3.20;2.10;;;6.60;99.90;;;;;;5014964;28;20287;-71
2021/04/13 02:36:45;;;;;;;2.47;2.10;;;6.80;99.90;;;;;;4998532;28;21865;-71
2021/04/13 02:39:14;;;;;;;2.33;2.13;;;6.90;99.90;;;;;;4942372;28;20236;-72
2021/04/13 02:41:51;;;;;;;5.40;2.30;;;6.90;99.90;;;;;;4991031;28;20230;-72
2021/04/13 02:44:23;;;;;;;3.20;2.00;;;6.80;99.90;;;;;;4984462;28;20181;-71
2021/04/13 02:46:59;;;;;;;2.83;1.83;;;6.80;99.90;;;;;;4980181;28;20189;-71
2021/04/13 02:49:29;;;;;;;2.73;2.17;;;6.80;99.90;;;;;;5002490;28;20297;-71
2021/04/13 02:52:08;;;;;;;4.30;1.90;;;6.80;99.90;;;;;;5000823;28;20196;-71
2021/04/13 02:54:52;;;;;;;3.67;2.30;;;6.80;99.90;;;;;;5013738;28;20212;-71
2021/04/13 02:57:53;;;;;;;2.43;1.93;;;6.80;99.90;;;;;;4995557;28;20192;-71
2021/04/13 03:00:30;;;;;;;2.20;1.90;;;6.80;99.90;;;;;;4981267;28;20267;-71
2021/04/13 03:03:11;;;;;;;4.17;1.97;;;6.80;99.90;;;;;;4986252;28;20223;-71
2021/04/13 03:05:40;;;;;;;3.10;2.10;;;6.70;99.90;;;;;;5005154;28;20192;-72
2021/04/13 03:08:11;;;;;;;3.17;2.00;;;6.70;99.90;;;;;;5018997;28;20641;-72
2021/04/13 03:10:47;;;;;;;2.77;2.27;;;6.80;99.90;;;;;;5006165;28;20261;-71
2021/04/13 03:13:19;;;;;;;6.83;2.37;;;6.80;99.90;;;;;;5003422;28;20563;-71
2021/04/13 03:15:59;;;;;;;2.47;1.90;;;6.90;99.90;;;;;;5018764;28;20192;-72
2021/04/13 03:18:38;;;;;;;3.03;2.00;;;6.90;99.90;;;;;;4999199;28;20187;-71
2021/04/13 03:21:13;;;;;;;4.97;2.20;;;6.90;99.90;;;;;;5002702;28;20191;-72
2021/04/13 03:23:43;;;;;;;3.57;2.00;;;7.00;99.90;;;;;;5004254;28;20182;-72
2021/04/13 03:26:20;;;;;;;3.07;2.20;;;7.00;99.90;;;;;;5006896;28;20299;-72
2021/04/13 03:28:54;;;;;;;4.17;1.80;;;7.00;99.90;;;;;;5003490;28;20338;-72
2021/04/13 03:31:23;;;;;;;2.57;2.10;;;7.10;99.90;;;;;;5020831;28;20197;-73
2021/04/13 03:33:50;;;;;;;2.80;2.10;;;7.10;99.90;;;;;;5002116;28;20315;-72
2021/04/13 03:36:24;;;;;;;2.50;2.00;;;7.10;99.90;;;;;;4999057;28;20193;-72
2021/04/13 03:39:00;;;;;;;3.50;2.10;;;7.00;99.90;;;;;;4997869;28;20224;-71
2021/04/13 03:41:28;;;;;;;2.43;2.00;;;7.00;99.90;;;;;;5010575;28;20284;-71
2021/04/13 03:44:01;;;;;;;3.93;1.83;;;7.00;99.90;;;;;;4986117;28;20189;-72
2021/04/13 03:46:38;;;;;;;5.57;1.93;;;7.00;99.90;;;;;;4997655;28;20189;-72
2021/04/13 03:49:18;;;;;;;3.57;1.83;;;7.00;99.90;;;;;;5015312;28;20641;-72
2021/04/13 03:51:57;;;;;;;2.07;1.70;;;7.00;99.90;;;;;;4987464;28;20192;-72
2021/04/13 03:54:31;;;;;;;2.50;1.70;;;7.00;99.90;;;;;;5005112;28;20395;-72
2021/04/13 03:57:00;;;;;;;3.17;1.70;;;7.00;99.90;;;;;;4997612;28;21871;-72
2021/04/13 03:59:33;;;;;;;5.13;1.73;;;7.10;99.90;;;;;;5002525;28;20468;-72
2021/04/13 04:02:00;;;;;;;2.27;1.70;;;7.10;99.90;;;;;;5019379;28;20204;-72
2021/04/13 04:04:32;;;;;;;2.90;1.70;;;7.00;99.90;;;;;;5005373;28;20196;-72
2021/04/13 04:08:03;;;;;;;1.73;1.50;;;7.00;99.90;;;;;;5000119;28;20279;-72
2021/04/13 04:10:34;;;;;;;3.50;1.70;;;6.80;99.90;;;;;;4994284;28;20192;-72
2021/04/13 04:13:19;;;;;;;3.83;1.43;;;6.90;99.90;;;;;;4985196;28;20201;-71
2021/04/13 04:16:13;;;;;;;2.03;1.57;;;6.90;99.90;;;;;;4998978;28;20589;-72
2021/04/13 04:18:52;;;;;;;2.47;1.50;;;6.90;99.90;;;;;;4998704;28;20220;-72
2021/04/13 04:21:24;;;;;;;1.97;1.70;;;6.90;99.90;;;;;;5003647;28;20756;-72
2021/04/13 04:24:30;;;;;;;2.73;1.60;;;6.80;99.90;;;;;;4985963;28;20535;-71
2021/04/13 04:27:16;;;;;;;2.03;1.50;;;6.90;99.90;;;;;;4988458;28;20268;-72
2021/04/13 04:30:03;;;;;;;3.00;1.60;;;6.80;99.90;;;;;;5001298;28;20242;-71
2021/04/13 04:32:29;;;;;;;2.80;1.70;;;6.80;99.90;;;;;;5002808;28;20203;-72
2021/04/13 04:35:03;;;;;;;1.77;1.50;;;6.90;99.90;;;;;;5006627;28;20189;-72
2021/04/13 04:37:35;;;;;;;2.07;1.70;;;6.90;99.90;;;;;;5000841;28;20276;-71
2021/04/13 04:40:25;;;;;;;2.00;1.70;;;7.00;99.90;;;;;;5007257;28;20228;-72
2021/04/13 04:43:03;;;;;;;2.50;1.63;;;7.00;99.90;;;;;;5001358;28;20575;-71
2021/04/13 04:45:42;;;;;;;2.07;1.60;;;7.10;99.90;;;;;;5001539;28;20208;-71
2021/04/13 04:48:34;;;;;;;2.50;1.80;;;7.20;99.90;;;;;;4996366;28;20188;-71
2021/04/13 04:51:09;;;;;;;2.07;1.53;;;7.30;99.90;;;;;;5016285;28;20198;-72
2021/04/13 04:53:38;;;;;;;2.23;1.70;;;7.40;99.90;;;;;;4999993;28;21645;-71
2021/04/13 04:56:11;;;;;;;3.10;2.33;;;7.60;99.90;;;;;;4984336;28;20646;-71
2021/04/13 04:58:38;;;;;;;2.67;1.60;;;7.70;99.90;;;;;;5014947;28;20620;-71
2021/04/13 05:01:06;;;;;;;2.57;1.80;;;7.80;99.90;;;;;;5000675;28;20252;-71
2021/04/13 05:03:32;;;;;;;2.13;1.60;;;7.90;99.90;;;;;;4999023;28;20703;-71
2021/04/13 05:05:59;;;;;;;3.30;1.50;;;8.00;99.90;;;;;;5001523;28;20280;-72
2021/04/13 05:08:26;;;;;;;1.73;1.47;;;8.20;99.90;;;;;;4984441;28;20794;-72
2021/04/13 05:10:53;;;;;;;1.60;1.50;;;8.30;99.90;;;;;;5004500;28;20212;-73
2021/04/13 05:13:21;;;;;;;3.57;1.60;;;8.40;99.90;;;;;;5002296;28;20185;-71
2021/04/13 05:15:48;;;;;;;2.00;1.70;;;8.40;99.90;;;;;;4985041;28;20633;-72
2021/04/13 05:18:14;;;;;;;2.10;1.70;;;8.40;99.90;;;;;;4981137;28;20189;-71
2021/04/13 05:20:41;;;;;;;1.87;1.60;;;8.50;99.90;;;;;;5000898;28;20234;-71
2021/04/13 05:23:08;;;;;;;2.20;1.77;;;8.60;99.90;;;;;;5004197;28;20178;-72
2021/04/13 05:25:35;;;;;;;1.50;1.40;;;8.70;99.90;;;;;;5004706;28;20644;-72
2021/04/13 05:28:01;;;;;;;2.43;1.70;;;8.90;99.90;;;;;;4995011;28;20227;-72
2021/04/13 05:30:28;;;;;;;2.63;1.90;;;9.00;99.90;;;;;;5001998;28;20208;-72
2021/04/13 05:32:55;;;;;;;1.60;1.50;;;9.20;99.90;;;;;;5016928;28;20189;-72
2021/04/13 05:35:24;;;;;;;3.77;1.70;;;9.30;99.90;;;;;;4999357;28;20223;-72
2021/04/13 05:37:51;;;;;;;1.93;1.73;;;9.40;99.90;;;;;;4978608;28;20201;-72
2021/04/13 05:40:31;;;;;;;2.13;1.60;;;9.50;99.90;;;;;;5001493;28;20324;-73
2021/04/13 05:42:58;;;;;;;4.33;1.67;;;9.60;99.90;;;;;;5018402;28;20240;-72
2021/04/13 05:45:31;;;;;;;2.53;1.47;;;9.60;99.90;;;;;;4980810;28;20181;-72
2021/04/13 05:48:06;;;;;;;4.30;1.40;;;9.60;99.90;;;;;;4996696;28;20192;-73
2021/04/13 05:50:37;;;;;;;2.67;1.53;;;9.70;99.90;;;;;;4998452;28;20250;-73
2021/04/13 05:53:04;;;;;;;2.53;1.60;;;10.10;99.90;;;;;;4984411;28;20231;-73
2021/04/13 05:55:31;;;;;;;1.40;1.20;;;10.30;99.90;;;;;;5001599;28;20307;-73
2021/04/13 05:58:13;;;;;;;1.60;1.30;;;10.20;99.90;;;;;;4981056;28;20557;-73
2021/04/13 06:00:40;;;;;;;2.03;1.27;;;10.20;99.90;;;;;;4996580;28;20205;-73
2021/04/13 06:03:07;;;;;;;1.60;1.40;;;10.40;99.90;;;;;;5001637;28;20733;-73
2021/04/13 06:05:33;;;;;;;1.70;1.40;;;10.60;99.90;;;;;;4986163;28;20189;-73
2021/04/13 06:08:00;;;;;;;1.77;1.30;;;10.50;99.90;;;;;;4997738;28;20196;-73
2021/04/13 06:10:27;;;;;;;4.07;1.70;;;10.60;99.90;;;;;;5017582;28;20192;-73
2021/04/13 06:12:58;;;;;;;1.50;1.10;;;10.80;99.90;;;;;;5013599;28;20197;-72
2021/04/13 06:15:28;;;;;;;1.80;1.30;;;10.90;99.90;;;;;;5000807;28;20193;-72
2021/04/13 06:17:55;;;;;;;2.10;1.30;;;10.90;99.90;;;;;;4999459;28;20212;-72
2021/04/13 06:20:25;;;;;;;1.90;1.20;;;11.10;99.90;;;;;;5016775;28;20209;-72
2021/04/13 06:22:52;;;;;;;1.87;1.30;;;11.10;99.90;;;;;;5015506;28;20641;-70
2021/04/13 06:25:27;;;;;;;1.60;1.47;;;11.30;99.90;;;;;;5002366;28;20207;-72
2021/04/13 06:27:53;;;;;;;3.60;1.47;;;11.40;99.90;;;;;;4996701;28;20274;-73
2021/04/13 06:30:23;;;;;;;1.10;0.90;;;11.50;99.90;;;;;;4989556;28;20181;-73
2021/04/13 06:32:50;;;;;;;1.50;1.00;;;11.50;99.90;;;;;;4980829;28;20189;-73
2021/04/13 06:35:19;;;;;;;2.37;1.17;;;11.50;99.90;;;;;;5014370;28;20192;-73
2021/04/13 06:37:48;;;;;;;2.03;1.30;;;11.50;99.90;;;;;;4980632;28;20181;-73
2021/04/13 06:41:00;;;;;;;1.30;1.20;;;11.60;99.90;;;;;;4980916;28;20216;-73
2021/04/13 06:43:44;;;;;;;1.23;1.00;;;11.80;99.90;;;;;;4998967;28;20196;-70
2021/04/13 06:46:39;;;;;;;3.27;1.00;;;11.80;99.90;;;;;;4997730;28;20270;-72
2021/04/13 06:49:24;;;;;;;3.93;1.20;;;12.00;99.90;;;;;;4996323;28;20197;-70
2021/04/13 06:52:19;;;;;;;1.73;1.20;;;12.20;99.90;;;;;;4982915;28;20189;-71
2021/04/13 06:55:29;;;;;;;5.77;1.13;;;12.20;99.90;;;;;;4997664;28;20196;-71
2021/04/13 06:58:25;;;;;;;3.00;1.00;;;12.30;99.90;;;;;;4978139;28;20200;-71
2021/04/13 07:01:23;;;;;;;1.70;1.10;;;12.30;99.90;;;;;;4997092;28;20598;-71
2021/04/13 07:04:11;;;;;;;10.73;1.20;;;12.50;99.90;;;;;;5000978;28;20267;-71
2021/04/13 07:06:52;;;;;;;2.10;1.03;;;12.50;99.90;;;;;;4999555;28;20236;-71
2021/04/13 07:09:45;;;;;;;1.43;1.00;;;12.70;99.90;;;;;;4997009;28;20276;-71
2021/04/13 07:13:07;;;;;;;0.80;0.80;;;12.80;99.90;;;;;;4980685;28;20199;-71
2021/04/13 07:15:59;;;;;;;1.00;0.90;;;12.90;99.90;;;;;;4998935;28;20554;-71
2021/04/13 07:18:54;;;;;;;1.07;0.87;;;13.00;99.90;;;;;;4999407;28;20193;-71
2021/04/13 07:21:47;;;;;;;1.03;0.90;;;13.00;99.90;;;;;;5000530;28;20189;-71
2021/04/13 07:24:18;;;;;;;1.20;1.00;;;13.10;99.90;;;;;;4999304;28;20192;-71
2021/04/13 07:27:03;;;;;;;1.20;1.10;;;13.20;99.90;;;;;;4998707;28;20185;-71
2021/04/13 07:29:47;;;;;;;1.10;1.00;;;13.40;99.90;;;;;;4993757;28;20197;-72
2021/04/13 07:32:21;;;;;;;1.13;1.00;;;13.60;99.90;;;;;;5000500;28;20244;-72
2021/04/13 07:34:57;;;;;;;1.97;1.30;;;13.70;99.90;;;;;;4999425;28;20201;-72
2021/04/13 07:37:47;;;;;;;2.50;1.10;;;13.80;99.90;;;;;;4994701;28;20185;-70
2021/04/13 07:40:36;;;;;;;1.70;0.97;;;13.70;99.90;;;;;;4999175;28;20217;-70
2021/04/13 07:43:12;;;;;;;3.40;1.20;;;14.00;99.90;;;;;;4983590;28;20689;-71
2021/04/13 07:46:39;;;;;;;1.13;1.03;;;14.30;99.90;;;;;;5004697;28;20191;-71
2021/04/13 07:49:38;;;;;;;1.40;1.10;;;14.40;99.90;;;;;;4944015;28;20229;-72
2021/04/13 07:52:41;;;;;;;1.60;1.20;;;14.40;99.90;;;;;;4963339;28;20214;-71
2021/04/13 07:55:20;;;;;;;2.27;1.07;;;14.50;99.90;;;;;;4997849;28;20196;-71
2021/04/13 07:58:21;;;;;;;1.50;1.10;;;14.60;99.90;;;;;;5018081;28;20193;-74
2021/04/13 08:00:53;;;;;;;1.20;1.10;;;14.80;99.90;;;;;;4997641;28;20244;-73
2021/04/13 08:03:26;;;;;;;1.30;1.20;;;14.90;99.90;;;;;;4983115;28;20538;-73
2021/04/13 08:06:00;;;;;;;3.07;1.13;;;15.10;99.90;;;;;;4999224;28;20688;-73
2021/04/13 08:08:41;;;;;;;2.23;1.30;;;15.10;99.90;;;;;;4988145;28;20187;-74
2021/04/13 08:11:29;;;;;;;2.37;1.47;;;15.20;99.90;;;;;;5002557;28;20196;-73
2021/04/13 08:13:56;;;;;;;1.40;1.23;;;15.30;99.90;;;;;;4999653;28;20192;-73
2021/04/13 08:16:38;;;;;;;1.37;1.27;;;15.50;99.90;;;;;;5000450;28;20212;-72
2021/04/13 08:19:27;;;;;;;1.87;1.27;;;15.50;99.90;;;;;;4999521;28;20224;-73
2021/04/13 08:22:21;;;;;;;2.83;1.20;;;15.60;99.90;;;;;;5001826;28;20200;-72
2021/04/13 08:24:58;;;;;;;1.80;1.20;;;15.70;99.90;;;;;;5000226;28;20883;-73
2021/04/13 08:27:50;;;;;;;1.47;1.20;;;15.70;99.90;;;;;;5006440;28;20725;-73
2021/04/13 08:34:41;;;;;;;1.67;1.30;;;15.90;99.90;;;;;;4948871;28;20307;-73
2021/04/13 08:37:31;;;;;;;2.07;1.30;;;16.10;99.90;;;;;;5017271;28;20184;-73
2021/04/13 08:40:13;;;;;;;1.40;1.20;;;16.10;99.90;;;;;;5000605;28;20722;-73
2021/04/13 08:43:07;;;;;;;3.10;1.37;;;16.10;99.90;;;;;;4985709;28;20222;-73
2021/04/13 08:46:16;;;;;;;3.10;1.50;;;16.10;99.90;;;;;;5002382;28;20276;-73
2021/04/13 08:49:14;;;;;;;3.37;1.47;;;16.20;99.90;;;;;;5015349;28;20192;-72
2021/04/13 08:51:48;;;;;;;1.43;1.30;;;16.40;99.90;;;;;;5001749;28;20188;-73
2021/04/13 08:54:33;;;;;;;1.70;1.53;;;16.40;99.90;;;;;;4997740;28;20317;-72
2021/04/13 08:57:24;;;;;;;3.13;1.30;;;16.40;99.90;;;;;;5000994;28;20359;-72
2021/04/13 09:00:05;;;;;;;4.00;1.57;;;16.50;99.90;;;;;;4988054;28;20217;-73
2021/04/13 09:02:38;;;;;;;2.90;1.40;;;16.60;99.90;;;;;;5002665;28;20769;-72
2021/04/13 09:05:26;;;;;;;1.63;1.40;;;16.70;99.90;;;;;;5013889;28;20626;-72
2021/04/13 09:08:03;;;;;;;1.67;1.30;;;16.70;99.90;;;;;;5000920;28;20595;-72
2021/04/13 09:10:38;;;;;;;2.83;1.20;;;16.70;99.90;;;;;;5002075;28;20181;-73
2021/04/13 09:13:13;;;;;;;2.37;1.60;;;16.70;99.90;;;;;;5018281;28;20189;-72
2021/04/13 09:16:10;;;;;;;1.87;1.50;;;16.90;99.90;;;;;;5008099;28;20617;-72
2021/04/13 09:19:00;;;;;;;2.07;1.60;;;16.90;99.90;;;;;;4983095;28;20185;-72
2021/04/13 09:21:51;;;;;;;2.40;1.50;;;17.00;99.90;;;;;;4986459;28;20590;-72
2021/04/13 09:24:41;;;;;;;1.67;1.37;;;17.10;99.90;;;;;;5018299;28;20189;-69
2021/04/13 09:27:39;;;;;;;1.63;1.23;;;17.10;99.90;;;;;;4985157;28;20319;-72
2021/04/13 09:30:29;;;;;;;2.47;1.33;;;17.10;99.90;;;;;;4944593;28;20300;-72
2021/04/13 09:33:20;;;;;;;1.60;1.47;;;17.20;99.90;;;;;;4998029;28;20243;-73
2021/04/13 09:35:58;;;;;;;1.83;1.50;;;17.10;99.90;;;;;;4998045;28;20207;-72
2021/04/13 09:39:24;;;;;;;2.03;1.50;;;17.30;99.90;;;;;;4981593;28;20231;-73
2021/04/13 09:42:16;;;;;;;2.70;1.67;;;17.30;99.90;;;;;;5001868;28;20617;-73
2021/04/13 09:45:07;;;;;;;1.87;1.40;;;17.30;99.90;;;;;;4998805;28;20220;-72
2021/04/13 09:47:51;;;;;;;1.40;1.30;;;17.60;99.90;;;;;;5013177;28;20223;-73
2021/04/13 09:50:51;;;;;;;1.90;1.30;;;17.60;99.90;;;;;;4997571;28;20336;-72
2021/04/13 09:54:04;;;;;;;2.63;1.70;;;17.80;99.90;;;;;;4984334;28;20197;-72
2021/04/13 09:57:11;;;;;;;1.80;1.37;;;17.90;99.90;;;;;;4996823;28;20817;-73
2021/04/13 10:00:05;;;;;;;3.00;1.47;;;18.10;99.90;;;;;;4999696;28;20234;-73
2021/04/13 10:03:08;;;;;;;3.63;1.60;;;18.00;99.90;;;;;;4996838;28;20196;-73
2021/04/13 10:05:45;;;;;;;1.40;1.10;;;18.20;99.90;;;;;;4998243;28;20196;-73
2021/04/13 10:08:52;;;;;;;4.40;1.40;;;18.30;99.90;;;;;;4996994;28;20208;-73
2021/04/13 10:11:24;;;;;;;1.50;1.27;;;18.30;99.90;;;;;;4939972;28;20629;-71
2021/04/13 10:14:33;;;;;;;2.40;1.30;;;18.60;99.90;;;;;;4991658;28;20196;-71
2021/04/13 10:17:48;;;;;;;4.73;1.60;;;18.50;99.90;;;;;;4981217;28;20209;-73
2021/04/13 10:21:02;;;;;;;2.77;1.50;;;18.70;99.90;;;;;;4994339;28;20259;-71
2021/04/13 10:23:37;;;;;;;2.67;1.43;;;19.00;99.90;;;;;;4980489;28;20218;-70
2021/04/13 10:26:32;;;;;;;1.60;1.27;;;19.00;99.90;;;;;;4998751;28;20172;-72
2021/04/13 10:29:36;;;;;;;2.43;1.50;;;19.20;99.90;;;;;;4995237;28;20842;-72
2021/04/13 10:32:38;;;;;;;2.63;1.30;;;19.20;99.90;;;;;;4974674;28;20196;-70
2021/04/13 10:35:23;;;;;;;1.53;1.23;;;19.30;99.90;;;;;;4983727;28;20247;-70
2021/04/13 10:37:49;;;;;;;1.20;1.10;;;19.20;99.90;;;;;;4996895;28;20220;-70
2021/04/13 10:40:52;;;;;;;1.97;1.50;;;19.20;99.90;;;;;;4982265;28;20283;-70
2021/04/13 10:44:16;;;;;;;3.23;1.50;;;19.10;99.90;;;;;;4998281;28;20184;-70
2021/04/13 10:47:07;;;;;;;1.90;1.50;;;19.10;99.90;;;;;;5010506;28;20197;-70
2021/04/13 10:50:16;;;;;;;2.47;1.40;;;19.10;99.90;;;;;;4997747;28;20304;-70
2021/04/13 10:53:39;;;;;;;5.40;1.50;;;18.80;99.90;;;;;;5000420;28;20189;-70
2021/04/13 10:56:34;;;;;;;3.03;1.30;;;18.90;99.90;;;;;;5004026;28;20197;-72
2021/04/13 10:59:30;;;;;;;3.30;1.40;;;19.00;99.90;;;;;;5000371;28;20214;-72
2021/04/13 11:02:58;;;;;;;2.47;1.60;;;18.80;99.90;;;;;;5000131;28;20193;-70
2021/04/13 11:05:38;;;;;;;2.80;1.50;;;18.90;99.90;;;;;;4912768;29;20187;-72
2021/04/13 11:08:56;;;;;;;2.93;1.30;;;18.90;99.90;;;;;;4982082;28;20199;-70
2021/04/13 11:12:34;;;;;;;2.13;1.57;;;18.60;99.90;;;;;;4999440;28;20185;-73
2021/04/13 11:15:44;;;;;;;2.83;1.33;;;18.70;99.90;;;;;;4955980;28;20251;-70
2021/04/13 11:18:50;;;;;;;3.33;1.47;;;18.60;99.90;;;;;;4944651;28;20263;-70
2021/04/13 11:21:31;;;;;;;1.63;1.40;;;18.40;99.90;;;;;;5021656;28;20204;-70
2021/04/13 11:24:24;;;;;;;2.07;1.50;;;18.60;99.90;;;;;;5003043;28;20243;-70
2021/04/13 11:27:24;;;;;;;4.63;1.60;;;18.70;99.90;;;;;;4980195;28;20472;-69
2021/04/13 11:30:12;;;;;;;1.80;1.47;;;18.60;99.90;;;;;;4983725;28;20204;-70
2021/04/13 11:33:13;;;;;;;1.50;1.20;;;18.80;99.90;;;;;;4988921;28;20191;-70
2021/04/13 11:36:43;;;;;;;2.73;1.73;;;18.60;99.90;;;;;;5003753;28;20266;-70
2021/04/13 11:39:38;;;;;;;1.87;1.60;;;18.60;99.90;;;;;;5000942;28;20704;-72
2021/04/13 11:42:23;;;;;;;3.07;1.67;;;18.10;99.90;;;;;;5002022;28;20192;-72
2021/04/13 11:45:26;;;;;;;2.20;1.53;;;18.40;99.90;;;;;;5003377;28;20250;-71
2021/04/13 11:48:33;;;;;;;2.00;1.53;;;18.60;99.90;;;;;;5005935;28;20190;-70
2021/04/13 11:51:27;;;;;;;2.70;1.70;;;18.70;99.90;;;;;;5002534;28;20200;-71
2021/04/13 11:54:17;;;;;;;2.87;1.73;;;18.60;99.90;;;;;;5000279;28;20197;-70
2021/04/13 11:56:43;;;;;;;2.23;1.60;;;18.60;99.90;;;;;;5001045;28;20193;-71
2021/04/13 11:59:26;;;;;;;3.67;1.60;;;18.60;99.90;;;;;;5004223;28;20223;-73
2021/04/13 12:02:15;;;;;;;3.53;1.70;;;18.20;99.90;;;;;;5007485;28;20196;-72
2021/04/13 12:04:51;;;;;;;1.90;1.70;;;18.30;99.90;;;;;;4999717;28;20225;-73
2021/04/13 12:07:45;;;;;;;4.43;1.70;;;18.00;99.90;;;;;;5001269;28;20569;-73
2021/04/13 12:10:26;;;;;;;3.70;1.63;;;18.30;99.90;;;;;;5000816;28;20854;-72
2021/04/13 12:12:54;;;;;;;3.63;1.90;;;18.40;99.90;;;;;;5003400;28;20189;-71
2021/04/13 12:15:20;;;;;;;3.53;1.70;;;18.30;99.90;;;;;;4984690;28;20282;-71
2021/04/13 12:17:56;;;;;;;2.37;1.60;;;18.40;99.90;;;;;;5000108;28;20329;-73
2021/04/13 12:20:30;;;;;;;2.63;1.70;;;17.90;99.90;;;;;;4999139;28;20240;-71
2021/04/13 12:23:19;;;;;;;2.60;1.53;;;18.30;99.90;;;;;;4999471;28;20610;-71
2021/04/13 12:25:52;;;;;;;3.57;2.00;;;18.10;99.90;;;;;;4998873;28;20189;-74
2021/04/13 12:28:41;;;;;;;3.50;1.90;;;18.40;99.90;;;;;;5003699;28;20185;-73
2021/04/13 12:31:24;;;;;;;3.27;1.83;;;18.40;99.90;;;;;;4996189;28;20185;-72
2021/04/13 12:34:09;;;;;;;3.17;1.77;;;18.20;99.90;;;;;;5000076;28;20204;-72
2021/04/13 12:36:53;;;;;;;2.93;1.80;;;18.20;99.90;;;;;;5018937;28;20192;-73
2021/04/13 12:39:51;;;;;;;3.40;1.80;;;17.90;99.90;;;;;;4996623;28;20204;-73
2021/04/13 12:42:40;;;;;;;4.17;2.00;;;17.90;99.90;;;;;;5021814;28;20192;-73
2021/04/13 12:45:49;;;;;;;3.13;1.77;;;17.80;99.90;;;;;;5001250;28;20637;-73
2021/04/13 12:48:26;;;;;;;5.50;1.83;;;18.00;99.90;;;;;;5006209;28;20653;-72
2021/04/13 12:51:21;;;;;;;5.57;2.00;;;17.90;99.90;;;;;;5000484;28;20933;-72
2021/04/13 12:53:47;;;;;;;3.33;1.70;;;17.30;99.90;;;;;;4998320;28;20244;-72
2021/04/13 12:56:29;;;;;;;5.37;1.73;;;17.60;99.90;;;;;;5000755;28;20181;-72
2021/04/13 12:59:14;;;;;;;3.30;1.80;;;17.70;99.90;;;;;;4997785;28;20185;-72
2021/04/13 13:01:43;;;;;;;4.80;1.77;;;17.80;99.90;;;;;;5001285;28;20212;-73
2021/04/13 13:04:35;;;;;;;3.03;2.20;;;17.90;99.90;;;;;;4999546;28;20181;-72
2021/04/13 13:07:03;;;;;;;2.07;1.80;;;17.90;99.90;;;;;;5000107;28;20220;-73
2021/04/13 13:09:36;;;;;;;3.03;1.80;;;17.70;99.90;;;;;;5000325;28;20587;-73
2021/04/13 13:12:08;;;;;;;3.97;1.80;;;17.80;99.90;;;;;;4992750;28;20283;-72
2021/04/13 13:14:41;;;;;;;3.17;1.90;;;17.90;99.90;;;;;;4996588;28;20212;-73
2021/04/13 13:17:09;;;;;;;4.07;1.80;;;17.70;99.90;;;;;;4998812;28;20287;-72
2021/04/13 13:19:50;;;;;;;5.00;1.80;;;17.70;99.90;;;;;;4987310;28;20674;-72
2021/04/13 13:22:27;;;;;;;5.63;2.23;;;17.40;99.90;;;;;;4995012;28;20223;-73
2021/04/13 13:24:55;;;;;;;2.67;1.77;;;17.50;99.90;;;;;;4996235;28;20221;-72
2021/04/13 13:27:30;;;;;;;3.77;1.70;;;17.40;99.90;;;;;;4996682;28;20660;-73
2021/04/13 13:30:05;;;;;;;4.43;1.70;;;17.20;99.90;;;;;;5000839;28;21011;-72
2021/04/13 13:32:34;;;;;;;3.57;2.10;;;17.50;99.90;;;;;;4982341;28;20192;-73
2021/04/13 13:35:07;;;;;;;5.53;1.90;;;17.30;99.90;;;;;;5011376;28;20192;-72
2021/04/13 13:37:39;;;;;;;3.83;1.90;;;17.50;99.90;;;;;;5015565;28;20228;-72
2021/04/13 13:40:17;;;;;;;3.03;1.70;;;17.30;99.90;;;;;;4999881;28;20216;-73
2021/04/13 13:42:45;;;;;;;3.83;1.60;;;17.30;99.90;;;;;;4999529;28;20211;-73
2021/04/13 13:45:32;;;;;;;3.13;1.90;;;17.30;99.90;;;;;;5003480;28;20192;-72
2021/04/13 13:47:59;;;;;;;2.30;1.73;;;17.20;99.90;;;;;;4992844;28;20184;-73
2021/04/13 13:50:39;;;;;;;6.10;2.20;;;17.20;99.90;;;;;;4995130;28;20645;-73
2021/04/13 13:53:22;;;;;;;3.07;1.73;;;17.00;99.90;;;;;;5003361;28;20696;-73
2021/04/13 13:56:01;;;;;;;4.53;2.20;;;16.90;99.90;;;;;;4994369;28;20216;-75
2021/04/13 13:58:34;;;;;;;2.83;1.60;;;17.10;99.90;;;;;;4985233;28;20196;-73
2021/04/13 14:01:09;;;;;;;3.77;1.80;;;17.20;99.90;;;;;;4999483;28;20221;-73
2021/04/13 14:03:42;;;;;;;4.30;2.10;;;17.10;99.90;;;;;;5002128;28;20193;-73
2021/04/13 14:06:15;;;;;;;2.07;1.50;;;17.00;99.90;;;;;;4976933;28;20195;-73
2021/04/13 14:08:47;;;;;;;4.53;1.90;;;17.00;99.90;;;;;;5012572;28;20225;-72
2021/04/13 14:11:27;;;;;;;2.60;1.77;;;16.90;99.90;;;;;;4997347;28;20215;-73
2021/04/13 14:14:30;;;;;;;3.10;1.90;;;16.70;99.90;;;;;;5000744;28;20251;-73
2021/04/13 14:16:58;;;;;;;3.03;1.90;;;16.70;99.90;;;;;;4989201;28;20204;-73
2021/04/13 14:19:24;;;;;;;3.57;2.27;;;16.70;99.90;;;;;;4979319;28;20224;-73
2021/04/13 14:22:19;;;;;;;4.90;2.23;;;16.70;99.90;;;;;;4998061;28;20169;-74
2021/04/13 14:25:00;;;;;;;2.23;1.70;;;16.60;99.90;;;;;;5000629;28;20231;-73